Brocket, Canada
Current Conditions -  °F | °C
As of 2:00 AM on Sunday 21 Dec 2014 (Local Time) from CZPC Reporting Station
Overcast Overcast  
Wind Chill: 29°   Ceiling: 18000
Heat Index: 37°   Visibility: 9mi
Dew Point: 28°   Wind: 14mph
Humidity: 70%   Direction: 300°WNW
Pressure: 29.28"   Gusts: NA
Location:  49.55°N, 113.75°W
Report Text: CZPC 210900Z AUTO 30012KT 9SM FEW150 BKN180 OVC200 03/M02 A2928 RMK PRESFR SLP939 DENSITY ALT 4000FT
Loading
Personal Weather Stations






























Interactive Weather Map New forecast layout! Learn more

10-Day Weather Forecast

Advertisements
Track Severe Weather on mobile